Main page
METAR-TAF:

METAR-TAF

Airports :

Ostend–Bruges International Airport

Ostend, Belgium

latitude: 51-12N, longitude: 002-52E, elevation: 4 m

Current weather observation

The report was made 31 minutes ago, at 05:50 UTC
Wind 8 kt from the Northeast
Temperature 17°C
Humidity 88%
Pressure 1021 hPa
Visibility 10 km or more
Few clouds at a height of 800 ft
Broken clouds at a height of 4500 ft

METAR: EBOS 150550Z 04008KT 9999 FEW008 BKN045 17/15 Q1021 NOSIG

Time: 08:21 (06:21 UTC)

Forecast

The report was made 1 hour and 11 minutes ago, at 05:10 UTC
Forecast valid from 15 at 06 UTC to 16 at 12 UTC
Wind 7 kt from the Northeast
Visibility 10 km or more
Scattered clouds at a height of 4000 ft

TAF: EBOS 150510Z 1506/1612 04007KT 9999 SCT040

Weather observations and forecasts of more than 4000 airports (METAR and TAF reports).

The available stations are represented by yellow and red dots on the map.

Hover mouse over dot to see the name of the station.

Then click to see weather observations and forecasts.

To change the map : click on the green buttons with a black cross to zoom in, on the green button with a dash to zoom out, or on the green arrows for adjacent maps.


METAR-TAF: